Flight Track Log - Related Links

Times and Time Zones

All times are in EDT time to prevent confusion due to time zone crossing. See the EGF4144 flight status page for this flight to view local times or setup timezone preferences in your user account.

Time Position Orientation Groundspeed Altitude Reporting Facility
EDT Latitude Longitude Course Direction KTS MPH feet Rate Location/Type
Wed 05:50:15 PM 41.9612 -87.9018 197° South  Level FlightAware Approximate
Wed 05:51:15 PM 41.8771 -87.9167 297° West  Level FlightAware Approximate
Wed 05:52:23 PM 41.8833 -87.9333 196° South 205 236 4,100  Level Chicago TRACON
Wed 05:53:40 PM 41.8147 -87.9597 193° South 232 267 6,100 1,883 Climbing Chicago Center
Wed 05:54:40 PM 41.7461 -87.9806 193° South 245 282 8,400 2,150 Climbing Chicago Center
Wed 05:55:40 PM 41.6714 -88.0044 187° South 267 307 10,400 1,700 Climbing Chicago Center
Wed 05:56:40 PM 41.5903 -88.0172 186° South 281 323 11,800 1,400 Climbing Chicago Center
Wed 05:57:40 PM 41.5008 -88.0303 188° South 308 354 13,200 1,550 Climbing Chicago Center
Wed 05:58:40 PM 41.4031 -88.0489 187° South 319 367 14,900 1,600 Climbing Chicago Center
Wed 05:59:40 PM 41.3011 -88.0647 187° South 348 400 16,400 1,100 Climbing Chicago Center
Wed 06:00:40 PM 41.2075 -88.0803 187° South 370 426 17,100 350 Climbing Chicago Center
Wed 06:01:40 PM 41.0969 -88.0989 188° South 386 444 17,100 -400 Level Chicago Center
Wed 06:02:40 PM 40.9869 -88.1203 186° South 400 460 16,300 -1,150 Descending Chicago Center
Wed 06:03:40 PM 40.8786 -88.1361 186° South 400 460 14,800 -1,500 Descending Chicago Center
Wed 06:04:40 PM 40.7725 -88.1517 189° South 400 460 13,300 -1,500 Descending Chicago Center
Wed 06:05:40 PM 40.6767 -88.1728 192° South 381 438 11,800 -1,150 Descending Chicago Center
Wed 06:06:40 PM 40.5833 -88.1989 196° South 359 413 11,000 -550 Descending Chicago Center
Wed 06:07:40 PM 40.4939 -88.2333 196° South 345 397 10,700 -800 Descending Chicago Center
Wed 06:08:40 PM 40.4169 -88.2619 197° South 323 372 9,400 -1,550 Descending Chicago Center
Wed 06:09:40 PM 40.3444 -88.2903 194° South 293 337 7,600 -1,750 Descending Chicago Center
Wed 06:10:40 PM 40.2736 -88.3133 196° South 275 316 5,900 -1,550 Descending Chicago Center
Wed 06:11:40 PM 40.2133 -88.3358 188° South 252 290 4,500 -1,400 Descending Chicago Center
Wed 06:12:40 PM 40.1447 -88.3478 188° South 233 268 3,100 -1,400 Descending Chicago Center

Login

Don't have an account? Register now (free) for customized features, flight alerts, and more!